createdAt,value
2018-08-06T00:00:57.907Z,22.88
2018-08-06T00:01:57.912Z,22.99
2018-08-06T00:02:57.916Z,22.99
2018-08-06T00:03:57.921Z,22.95
2018-08-06T00:04:57.925Z,22.98
2018-08-06T00:05:57.928Z,22.92
2018-08-06T00:06:57.933Z,22.95
2018-08-06T00:07:57.940Z,22.93
2018-08-06T00:08:57.942Z,22.84
2018-08-06T00:09:57.945Z,22.88
2018-08-06T00:10:57.953Z,22.84
2018-08-06T00:11:57.955Z,22.78
2018-08-06T00:12:57.958Z,22.84
2018-08-06T00:13:57.961Z,22.81
2018-08-06T00:14:57.966Z,22.86
2018-08-06T00:15:57.973Z,22.83
2018-08-06T00:16:57.974Z,22.80
2018-08-06T00:17:57.978Z,22.88
2018-08-06T00:18:57.983Z,22.73
2018-08-06T00:19:57.987Z,22.76
2018-08-06T00:20:57.991Z,22.73
2018-08-06T00:21:57.995Z,22.59
2018-08-06T00:22:57.999Z,22.61
2018-08-06T00:23:58.004Z,22.67
2018-08-06T00:24:58.009Z,22.58
2018-08-06T00:25:58.011Z,22.70
2018-08-06T00:26:58.015Z,22.65
2018-08-06T00:27:58.020Z,22.74
2018-08-06T00:28:58.024Z,22.74
2018-08-06T00:29:58.026Z,22.80
2018-08-06T00:30:58.031Z,22.77
2018-08-06T00:31:58.039Z,22.80
2018-08-06T00:32:58.039Z,22.73
2018-08-06T00:33:58.042Z,22.78
2018-08-06T00:34:58.049Z,22.76
2018-08-06T00:35:58.051Z,22.84
2018-08-06T00:36:58.056Z,22.77
2018-08-06T00:37:58.059Z,22.80
2018-08-06T00:38:58.062Z,22.78
2018-08-06T00:39:58.067Z,22.80
2018-08-06T00:40:58.072Z,22.76
2018-08-06T00:41:58.074Z,22.74
2018-08-06T00:42:58.080Z,22.76
2018-08-06T00:43:58.087Z,22.78
2018-08-06T00:44:58.090Z,22.88
2018-08-06T00:45:58.094Z,22.88
2018-08-06T00:46:58.095Z,22.74
2018-08-06T00:47:58.098Z,22.81
2018-08-06T00:48:58.102Z,22.84
2018-08-06T00:49:58.105Z,22.70
2018-08-06T00:50:58.111Z,22.59
2018-08-06T00:51:58.115Z,22.51
2018-08-06T00:52:58.132Z,22.51
2018-08-06T00:53:58.121Z,22.44
2018-08-06T00:54:58.125Z,22.33
2018-08-06T00:55:58.129Z,22.36
2018-08-06T00:56:58.135Z,22.43
2018-08-06T00:57:58.137Z,22.31
2018-08-06T00:58:58.142Z,22.38
2018-08-06T00:59:58.146Z,22.36
2018-08-06T01:00:58.149Z,22.37
2018-08-06T01:01:58.152Z,22.44
2018-08-06T01:02:58.157Z,22.40
2018-08-06T01:03:58.159Z,22.38
2018-08-06T01:04:58.164Z,22.40
2018-08-06T01:05:58.166Z,22.40
2018-08-06T01:06:58.171Z,22.41
2018-08-06T01:07:58.174Z,22.33
2018-08-06T01:08:58.179Z,22.33
2018-08-06T01:09:58.184Z,22.37
2018-08-06T01:10:58.186Z,22.40
2018-08-06T01:11:58.191Z,22.38
2018-08-06T01:12:58.198Z,22.37
2018-08-06T01:13:58.198Z,22.51
2018-08-06T01:14:58.202Z,22.46
2018-08-06T01:15:58.206Z,22.44
2018-08-06T01:16:58.214Z,22.44
2018-08-06T01:17:58.211Z,22.46
2018-08-06T01:18:58.217Z,22.49
2018-08-06T01:19:58.220Z,22.52
2018-08-06T01:20:58.225Z,22.41
2018-08-06T01:21:58.226Z,22.38
2018-08-06T01:22:58.234Z,22.40
2018-08-06T01:23:58.236Z,22.33
2018-08-06T01:24:58.239Z,22.31
2018-08-06T01:25:58.246Z,22.23
2018-08-06T01:26:58.247Z,22.15
2018-08-06T01:27:58.250Z,22.07
2018-08-06T01:28:58.253Z,22.19
2018-08-06T01:29:58.259Z,22.12
2018-08-06T01:30:58.261Z,22.19
2018-08-06T01:31:58.264Z,22.12
2018-08-06T01:32:58.268Z,22.12
2018-08-06T01:33:58.272Z,22.15
2018-08-06T01:34:58.276Z,22.07
2018-08-06T01:35:58.280Z,22.06
2018-08-06T01:36:58.283Z,22.12
2018-08-06T01:37:58.286Z,22.04
2018-08-06T01:38:58.290Z,22.06
2018-08-06T01:39:58.294Z,22.08
2018-08-06T01:40:58.298Z,22.14
2018-08-06T01:41:58.301Z,22.16
2018-08-06T01:42:58.305Z,22.10
2018-08-06T01:43:58.308Z,22.08
2018-08-06T01:44:58.313Z,22.08
2018-08-06T01:45:58.320Z,22.04
2018-08-06T01:46:58.320Z,22.10
2018-08-06T01:47:58.323Z,22.07
2018-08-06T01:48:58.326Z,22.06
2018-08-06T01:49:58.332Z,22.08
2018-08-06T01:50:58.333Z,22.18
2018-08-06T01:51:58.338Z,22.18
2018-08-06T01:52:58.341Z,22.21
2018-08-06T01:53:58.345Z,22.12
2018-08-06T01:54:58.349Z,22.07
2018-08-06T01:55:58.352Z,22.08
2018-08-06T01:56:58.355Z,22.04
2018-08-06T01:57:58.357Z,22.04
2018-08-06T01:58:58.366Z,22.03
2018-08-06T01:59:58.371Z,21.99
2018-08-06T02:00:58.370Z,22.07
2018-08-06T02:01:58.373Z,22.04
2018-08-06T02:02:58.375Z,22.06
2018-08-06T02:03:58.380Z,22.08
2018-08-06T02:04:58.384Z,22.03
2018-08-06T02:05:58.386Z,22.00
2018-08-06T02:06:58.389Z,21.94
2018-08-06T02:07:58.392Z,21.83
2018-08-06T02:08:58.397Z,21.81
2018-08-06T02:09:58.399Z,21.77
2018-08-06T02:10:58.404Z,21.77
2018-08-06T02:11:58.408Z,21.66
2018-08-06T02:12:58.411Z,21.69
2018-08-06T02:13:58.415Z,21.74
2018-08-06T02:14:58.418Z,21.68
2018-08-06T02:15:58.423Z,21.77
2018-08-06T02:16:58.425Z,21.72
2018-08-06T02:17:58.428Z,21.66
2018-08-06T02:18:58.432Z,21.65
2018-08-06T02:19:58.436Z,21.63
2018-08-06T02:20:58.439Z,21.74
2018-08-06T02:21:58.442Z,21.66
2018-08-06T02:22:58.445Z,21.69
2018-08-06T02:23:58.449Z,21.68
2018-08-06T02:24:58.452Z,21.69
2018-08-06T02:25:58.455Z,21.75
2018-08-06T02:26:58.458Z,21.80
2018-08-06T02:27:58.462Z,21.75
2018-08-06T02:28:58.467Z,21.81
2018-08-06T02:29:58.471Z,21.80
2018-08-06T02:30:58.473Z,21.84
2018-08-06T02:31:58.476Z,21.83
2018-08-06T02:32:58.480Z,21.83
2018-08-06T02:33:58.481Z,21.85
2018-08-06T02:34:58.488Z,21.80
2018-08-06T02:35:58.490Z,21.78
2018-08-06T02:36:58.493Z,21.68
2018-08-06T02:37:58.497Z,21.70
2018-08-06T02:38:58.499Z,21.66
2018-08-06T02:39:58.503Z,21.66
2018-08-06T02:40:58.507Z,21.74
2018-08-06T02:41:58.509Z,21.66
2018-08-06T02:42:58.512Z,21.66
2018-08-06T02:43:58.516Z,21.62
2018-08-06T02:44:58.519Z,21.51
2018-08-06T02:45:58.524Z,21.47
2018-08-06T02:46:58.527Z,21.50
2018-08-06T02:47:58.529Z,21.40
2018-08-06T02:48:58.532Z,21.38
2018-08-06T02:49:58.534Z,21.40
2018-08-06T02:50:58.538Z,21.37
2018-08-06T02:51:58.542Z,21.30
2018-08-06T02:52:58.546Z,21.32
2018-08-06T02:53:58.556Z,21.29
2018-08-06T02:54:58.552Z,21.30
2018-08-06T02:55:58.555Z,21.33
2018-08-06T02:56:58.559Z,21.37
2018-08-06T02:57:58.560Z,21.35
2018-08-06T02:58:58.564Z,21.40
2018-08-06T02:59:58.567Z,21.37
2018-08-06T03:00:58.573Z,21.37
2018-08-06T03:01:58.573Z,21.33
2018-08-06T03:02:58.577Z,21.29
2018-08-06T03:03:58.579Z,21.22
2018-08-06T03:04:58.582Z,21.14
2018-08-06T03:05:58.585Z,21.20
2018-08-06T03:06:58.589Z,21.10
2018-08-06T03:07:58.592Z,21.15
2018-08-06T03:08:58.594Z,21.17
2018-08-06T03:09:58.625Z,21.15
2018-08-06T03:10:58.601Z,21.17
2018-08-06T03:11:58.605Z,21.17
2018-08-06T03:12:58.608Z,21.15
2018-08-06T03:13:58.611Z,21.19
2018-08-06T03:14:58.614Z,21.15
2018-08-06T03:15:58.620Z,21.13
2018-08-06T03:16:58.633Z,21.15
2018-08-06T03:17:58.622Z,21.07
2018-08-06T03:18:58.625Z,21.07
2018-08-06T03:19:58.628Z,20.98
2018-08-06T03:20:58.634Z,20.83
2018-08-06T03:21:58.637Z,20.96
2018-08-06T03:22:58.638Z,20.95
2018-08-06T03:23:58.641Z,21.00
2018-08-06T03:24:58.645Z,20.95
2018-08-06T03:25:58.646Z,20.85
2018-08-06T03:26:58.650Z,20.89
2018-08-06T03:27:58.654Z,20.89
2018-08-06T03:28:58.656Z,20.85
2018-08-06T03:29:58.659Z,20.86
2018-08-06T03:30:58.661Z,20.92
2018-08-06T03:31:58.664Z,20.95
2018-08-06T03:32:58.667Z,20.93
2018-08-06T03:33:58.671Z,20.93
2018-08-06T03:34:58.674Z,20.89
2018-08-06T03:35:58.676Z,20.93
2018-08-06T03:36:58.680Z,20.89
2018-08-06T03:37:58.683Z,20.88
2018-08-06T03:38:58.686Z,20.77
2018-08-06T03:39:58.691Z,20.78
2018-08-06T03:40:58.697Z,20.83
2018-08-06T03:41:58.698Z,20.80
2018-08-06T03:42:58.697Z,20.85
2018-08-06T03:43:58.701Z,20.86
2018-08-06T03:44:58.703Z,20.86
2018-08-06T03:45:58.705Z,20.96
2018-08-06T03:46:58.708Z,21.00
2018-08-06T03:47:58.712Z,20.89
2018-08-06T03:48:58.715Z,20.98
2018-08-06T03:49:58.716Z,21.00
2018-08-06T03:50:58.721Z,20.98
2018-08-06T03:51:58.724Z,21.04
2018-08-06T03:52:58.726Z,20.98
2018-08-06T03:53:58.729Z,20.96
2018-08-06T03:54:58.731Z,21.05
2018-08-06T03:55:58.736Z,21.11
2018-08-06T03:56:58.738Z,21.13
2018-08-06T03:57:58.741Z,21.14
2018-08-06T03:58:58.743Z,21.13
2018-08-06T03:59:58.745Z,21.08
2018-08-06T04:00:58.749Z,21.13
2018-08-06T04:01:58.754Z,21.13
2018-08-06T04:02:58.754Z,21.14
2018-08-06T04:03:58.757Z,21.17
2018-08-06T04:04:58.761Z,21.13
2018-08-06T04:05:58.763Z,21.14
2018-08-06T04:06:58.766Z,21.11
2018-08-06T04:07:58.770Z,21.08
2018-08-06T04:08:58.772Z,21.14
2018-08-06T04:09:58.775Z,21.05
2018-08-06T04:10:58.779Z,20.95
2018-08-06T04:11:58.781Z,20.98
2018-08-06T04:12:58.784Z,20.92
2018-08-06T04:13:58.789Z,20.93
2018-08-06T04:14:58.792Z,20.82
2018-08-06T04:15:58.792Z,20.78
2018-08-06T04:16:58.796Z,20.82
2018-08-06T04:17:58.797Z,20.80
2018-08-06T04:18:58.808Z,20.78
2018-08-06T04:19:58.803Z,20.80
2018-08-06T04:20:58.806Z,20.85
2018-08-06T04:21:58.813Z,20.75
2018-08-06T04:22:58.813Z,20.85
2018-08-06T04:23:58.815Z,20.80
2018-08-06T04:24:58.817Z,20.78
2018-08-06T04:25:58.820Z,20.80
2018-08-06T04:26:58.824Z,20.80
2018-08-06T04:27:58.826Z,20.80
2018-08-06T04:28:58.829Z,20.78
2018-08-06T04:29:58.832Z,20.82
2018-08-06T04:30:58.834Z,20.74
2018-08-06T04:31:58.837Z,20.71
2018-08-06T04:32:58.894Z,20.73
2018-08-06T04:33:58.842Z,20.70
2018-08-06T04:34:58.846Z,20.71
2018-08-06T04:35:58.851Z,20.60
2018-08-06T04:36:58.851Z,20.75
2018-08-06T04:37:58.854Z,20.63
2018-08-06T04:38:58.858Z,20.60
2018-08-06T04:39:58.860Z,20.66
2018-08-06T04:40:58.864Z,20.59
2018-08-06T04:41:58.865Z,20.59
2018-08-06T04:42:58.868Z,20.74
2018-08-06T04:43:58.871Z,20.71
2018-08-06T04:44:58.875Z,20.71
2018-08-06T04:45:58.879Z,20.77
2018-08-06T04:46:58.880Z,20.82
2018-08-06T04:47:58.883Z,20.74
2018-08-06T04:48:58.884Z,20.78
2018-08-06T04:49:58.887Z,20.82
2018-08-06T04:50:58.891Z,20.77
2018-08-06T04:51:58.893Z,20.77
2018-08-06T04:52:58.897Z,20.88
2018-08-06T04:53:58.899Z,20.80
2018-08-06T04:54:58.902Z,20.85
2018-08-06T04:55:58.904Z,20.89
2018-08-06T04:56:58.908Z,20.89
2018-08-06T04:57:58.933Z,21.03
2018-08-06T04:58:58.913Z,21.03
2018-08-06T04:59:58.917Z,21.11
2018-08-06T05:00:58.919Z,21.17
2018-08-06T05:01:58.925Z,21.25
2018-08-06T05:02:58.925Z,21.22
2018-08-06T05:03:58.927Z,21.26
2018-08-06T05:04:58.932Z,21.29
2018-08-06T05:05:58.933Z,21.32
2018-08-06T05:06:58.966Z,21.38
2018-08-06T05:07:58.939Z,21.41
2018-08-06T05:08:58.943Z,21.45
2018-08-06T05:09:58.946Z,21.53
2018-08-06T05:10:58.949Z,21.54
2018-08-06T05:11:58.969Z,21.53
2018-08-06T05:12:58.954Z,21.53
2018-08-06T05:13:58.957Z,21.45
2018-08-06T05:14:58.965Z,21.54
2018-08-06T05:15:58.963Z,21.45
2018-08-06T05:16:58.968Z,21.47
2018-08-06T05:17:58.970Z,21.51
2018-08-06T05:18:58.972Z,21.44
2018-08-06T05:19:58.977Z,21.51
2018-08-06T05:20:58.980Z,21.60
2018-08-06T05:21:58.986Z,21.54
2018-08-06T05:22:58.985Z,21.60
2018-08-06T05:23:58.988Z,21.66
2018-08-06T05:24:58.993Z,21.63
2018-08-06T05:25:58.995Z,21.59
2018-08-06T05:26:58.999Z,21.68
2018-08-06T05:27:59.003Z,21.59
2018-08-06T05:28:59.006Z,21.62
2018-08-06T05:29:59.006Z,21.66
2018-08-06T05:30:59.012Z,21.63
2018-08-06T05:31:59.015Z,21.66
2018-08-06T05:32:59.019Z,21.63
2018-08-06T05:33:59.020Z,21.65
2018-08-06T05:34:59.024Z,21.62
2018-08-06T05:35:59.027Z,21.63
2018-08-06T05:36:59.029Z,21.63
2018-08-06T05:37:59.036Z,21.63
2018-08-06T05:38:59.036Z,21.66
2018-08-06T05:39:59.044Z,21.60
2018-08-06T05:40:59.042Z,21.65
2018-08-06T05:41:59.049Z,21.60
2018-08-06T05:42:59.049Z,21.69
2018-08-06T05:43:59.053Z,21.59
2018-08-06T05:44:59.055Z,21.65
2018-08-06T05:45:59.058Z,21.43
2018-08-06T05:46:59.062Z,21.50
2018-08-06T05:47:59.064Z,21.48
2018-08-06T05:48:59.068Z,21.54
2018-08-06T05:49:59.070Z,21.48
2018-08-06T05:50:59.073Z,21.47
2018-08-06T05:51:59.077Z,21.47
2018-08-06T05:52:59.081Z,21.47
2018-08-06T05:53:59.083Z,21.48
2018-08-06T05:54:59.087Z,21.51
2018-08-06T05:55:59.090Z,21.44
2018-08-06T05:56:59.094Z,21.38
2018-08-06T05:57:59.096Z,21.35
2018-08-06T05:58:59.099Z,21.33
2018-08-06T05:59:59.102Z,21.32
2018-08-06T06:00:59.108Z,21.44
2018-08-06T06:01:59.109Z,21.45
2018-08-06T06:02:59.113Z,21.53
2018-08-06T06:03:59.116Z,21.68
2018-08-06T06:04:59.152Z,21.65
2018-08-06T06:05:59.170Z,21.69
2018-08-06T06:06:59.180Z,21.69
2018-08-06T06:07:59.227Z,21.66
2018-08-06T06:08:59.132Z,21.59
2018-08-06T06:09:59.136Z,21.66
2018-08-06T06:10:59.216Z,21.69
2018-08-06T06:11:59.213Z,21.78
2018-08-06T06:12:59.214Z,21.85
2018-08-06T06:13:59.148Z,21.84
2018-08-06T06:14:59.150Z,22.01
2018-08-06T06:15:59.189Z,22.04
2018-08-06T06:16:59.159Z,22.04
2018-08-06T06:17:59.190Z,22.15
2018-08-06T06:18:59.166Z,22.08
2018-08-06T06:19:59.169Z,22.04
2018-08-06T06:20:59.174Z,22.07
2018-08-06T06:21:59.176Z,22.12
2018-08-06T06:22:59.180Z,22.22
2018-08-06T06:23:59.182Z,22.19
2018-08-06T06:24:59.188Z,22.25
2018-08-06T06:25:59.189Z,22.28
2018-08-06T06:26:59.194Z,22.36
2018-08-06T06:27:59.197Z,22.34
2018-08-06T06:28:59.203Z,22.38
2018-08-06T06:29:59.204Z,22.23
2018-08-06T06:30:59.208Z,22.08
2018-08-06T06:31:59.212Z,21.92
2018-08-06T06:32:59.215Z,21.83
2018-08-06T06:33:59.218Z,21.68
2018-08-06T06:34:59.222Z,21.68
2018-08-06T06:35:59.225Z,21.81
2018-08-06T06:36:59.229Z,21.80
2018-08-06T06:37:59.233Z,21.81
2018-08-06T06:38:59.236Z,21.89
2018-08-06T06:39:59.239Z,21.85
2018-08-06T06:40:59.302Z,22.00
2018-08-06T06:41:59.248Z,22.18
2018-08-06T06:42:59.251Z,22.26
2018-08-06T06:43:59.254Z,22.37
2018-08-06T06:44:59.258Z,22.56
2018-08-06T06:45:59.260Z,22.78
2018-08-06T06:46:59.267Z,22.84
2018-08-06T06:47:59.268Z,22.93
2018-08-06T06:48:59.350Z,22.91
2018-08-06T06:49:59.279Z,22.84
2018-08-06T06:50:59.585Z,22.92
2018-08-06T06:51:59.284Z,22.83
2018-08-06T06:52:59.291Z,22.91
2018-08-06T06:53:59.291Z,23.01
2018-08-06T06:54:59.296Z,23.08
2018-08-06T06:55:59.300Z,23.08
2018-08-06T06:56:59.304Z,23.28
2018-08-06T06:57:59.308Z,23.42
2018-08-06T06:58:59.312Z,23.28
2018-08-06T06:59:59.373Z,23.25
2018-08-06T07:00:59.321Z,23.33
2018-08-06T07:01:59.325Z,23.39
2018-08-06T07:02:59.342Z,23.51
2018-08-06T07:03:59.333Z,23.51
2018-08-06T07:04:59.336Z,23.62
2018-08-06T07:05:59.340Z,23.66
2018-08-06T07:06:59.345Z,23.71
2018-08-06T07:07:59.350Z,23.86
2018-08-06T07:08:59.356Z,24.09
2018-08-06T07:09:59.359Z,24.48
2018-08-06T07:10:59.686Z,24.77
2018-08-06T07:11:59.575Z,25.22
2018-08-06T07:12:59.459Z,25.71
2018-08-06T07:13:59.529Z,26.27
2018-08-06T07:14:59.394Z,26.53
2018-08-06T07:15:59.632Z,26.74
2018-08-06T07:16:59.493Z,26.89
2018-08-06T07:17:59.481Z,27.01
2018-08-06T07:18:59.422Z,27.07
2018-08-06T07:19:59.491Z,26.83
2018-08-06T07:20:59.440Z,26.82
2018-08-06T07:21:59.450Z,26.70
2018-08-06T07:22:59.455Z,26.70
2018-08-06T07:23:59.468Z,26.96
2018-08-06T07:24:59.475Z,27.25
2018-08-06T07:25:59.535Z,27.28
2018-08-06T07:26:59.489Z,27.01
2018-08-06T07:27:59.497Z,26.78
2018-08-06T07:28:59.504Z,26.74
2018-08-06T07:29:59.513Z,26.97
2018-08-06T07:30:59.520Z,27.08
2018-08-06T07:31:59.650Z,27.08
2018-08-06T07:32:59.600Z,27.11
2018-08-06T07:33:59.544Z,26.93
2018-08-06T07:34:59.551Z,26.93
2018-08-06T07:35:59.562Z,27.03
2018-08-06T07:36:59.569Z,26.96
2018-08-06T07:37:59.576Z,27.00
2018-08-06T07:38:59.582Z,26.88
2018-08-06T07:39:59.634Z,26.74
2018-08-06T07:40:59.624Z,26.81
2018-08-06T07:41:59.623Z,26.96
2018-08-06T07:42:59.639Z,27.10
2018-08-06T07:43:59.642Z,27.23
2018-08-06T07:44:59.648Z,27.47
2018-08-06T07:45:59.655Z,27.28
2018-08-06T07:46:59.685Z,26.96
2018-08-06T07:47:59.673Z,27.01
2018-08-06T07:48:59.999Z,26.96
2018-08-06T07:49:59.760Z,26.93
2018-08-06T07:51:00.205Z,27.00
2018-08-06T07:51:59.961Z,27.03
2018-08-06T07:52:59.708Z,26.96
2018-08-06T07:53:59.963Z,26.96
2018-08-06T07:54:59.907Z,26.76
2018-08-06T07:56:00.079Z,26.74
2018-08-06T07:56:59.897Z,26.85
2018-08-06T07:57:59.790Z,26.78
2018-08-06T07:59:00.035Z,26.67
2018-08-06T07:59:59.839Z,26.49
2018-08-06T08:00:59.928Z,26.31
2018-08-06T08:01:59.775Z,26.42
2018-08-06T08:02:59.765Z,26.53
2018-08-06T08:03:59.781Z,26.67
2018-08-06T08:04:59.826Z,26.93
2018-08-06T08:05:59.801Z,27.13
2018-08-06T08:06:59.864Z,27.40
2018-08-06T08:07:59.833Z,27.44
2018-08-06T08:08:59.808Z,27.53
2018-08-06T08:09:59.814Z,27.47
2018-08-06T08:10:59.821Z,27.64
2018-08-06T08:11:59.854Z,27.57
2018-08-06T08:12:59.921Z,27.75
2018-08-06T08:13:59.968Z,27.75
2018-08-06T08:14:59.857Z,27.86
2018-08-06T08:15:59.868Z,28.04
2018-08-06T08:16:59.879Z,28.40
2018-08-06T08:17:59.888Z,28.43
2018-08-06T08:18:59.897Z,28.56
2018-08-06T08:19:59.940Z,28.60
2018-08-06T08:20:59.920Z,28.68
2018-08-06T08:21:59.931Z,29.02
2018-08-06T08:22:59.940Z,29.31
2018-08-06T08:23:59.953Z,29.55
2018-08-06T08:24:59.964Z,29.89
2018-08-06T08:26:00.017Z,29.74
2018-08-06T08:26:59.987Z,29.61
2018-08-06T08:27:59.999Z,29.61
2018-08-06T08:29:00.013Z,29.73
2018-08-06T08:30:00.328Z,29.68
2018-08-06T08:31:00.036Z,29.59
2018-08-06T08:32:00.049Z,29.58
2018-08-06T08:33:00.061Z,29.31
2018-08-06T08:34:00.137Z,29.03
2018-08-06T08:35:00.098Z,28.90
2018-08-06T08:36:00.096Z,29.05
2018-08-06T08:37:00.109Z,29.07
2018-08-06T08:38:00.145Z,28.93
2018-08-06T08:39:00.132Z,29.02
2018-08-06T08:40:00.145Z,29.12
2018-08-06T08:41:00.157Z,29.28
2018-08-06T08:42:00.168Z,29.68
2018-08-06T08:43:00.180Z,30.14
2018-08-06T08:44:00.192Z,30.61
2018-08-06T08:45:00.205Z,30.86
2018-08-06T08:46:00.218Z,30.61
2018-08-06T08:47:00.236Z,30.69
2018-08-06T08:48:00.246Z,30.71
2018-08-06T08:49:00.260Z,31.00
2018-08-06T08:50:00.275Z,31.39
2018-08-06T08:51:00.288Z,30.83
2018-08-06T08:52:00.300Z,30.80
2018-08-06T08:53:00.316Z,30.83
2018-08-06T08:54:00.329Z,30.55
2018-08-06T08:55:00.343Z,30.61
2018-08-06T08:56:00.360Z,30.73
2018-08-06T08:57:00.373Z,30.33
2018-08-06T08:58:00.387Z,30.14
2018-08-06T08:59:00.506Z,29.99
2018-08-06T09:00:00.417Z,30.17
2018-08-06T09:01:00.431Z,30.11
2018-08-06T09:02:00.445Z,29.83
2018-08-06T09:03:00.463Z,29.86
2018-08-06T09:04:00.474Z,29.98
2018-08-06T09:05:00.489Z,30.01
2018-08-06T09:06:00.503Z,29.96
2018-08-06T09:07:00.517Z,30.08
2018-08-06T09:08:00.537Z,29.95
2018-08-06T09:09:01.015Z,30.14
2018-08-06T09:10:00.840Z,30.74
2018-08-06T09:11:00.776Z,30.89
2018-08-06T09:12:00.903Z,30.89
2018-08-06T09:13:00.605Z,30.69
2018-08-06T09:14:00.649Z,30.73
2018-08-06T09:15:00.634Z,30.92
2018-08-06T09:16:00.648Z,31.36
2018-08-06T09:17:00.664Z,31.69
2018-08-06T09:18:00.675Z,31.86
2018-08-06T09:19:00.692Z,32.20
2018-08-06T09:20:00.706Z,32.04
2018-08-06T09:21:00.720Z,32.17
2018-08-06T09:22:00.739Z,32.42
2018-08-06T09:23:00.752Z,32.64
2018-08-06T09:24:00.765Z,32.83
2018-08-06T09:25:00.780Z,32.86
2018-08-06T09:26:00.841Z,32.98
2018-08-06T09:27:00.810Z,33.08
2018-08-06T09:28:00.825Z,33.04
2018-08-06T09:29:00.840Z,32.98
2018-08-06T09:30:00.897Z,32.85
2018-08-06T09:31:00.872Z,32.75
2018-08-06T09:32:00.887Z,32.64
2018-08-06T09:33:00.907Z,32.34
2018-08-06T09:34:01.212Z,31.70
2018-08-06T09:35:00.933Z,31.55
2018-08-06T09:36:00.950Z,31.66
2018-08-06T09:37:00.965Z,31.54
2018-08-06T09:38:00.979Z,31.29
2018-08-06T09:39:00.995Z,31.02
2018-08-06T09:40:01.012Z,31.15
2018-08-06T09:41:01.026Z,31.45
2018-08-06T09:42:01.046Z,31.79
2018-08-06T09:43:01.240Z,31.93
2018-08-06T09:44:01.115Z,31.77
2018-08-06T09:45:01.087Z,31.69
2018-08-06T09:46:01.102Z,31.79
2018-08-06T09:47:01.117Z,31.97
2018-08-06T09:48:01.131Z,31.85
2018-08-06T09:49:01.146Z,31.87
2018-08-06T09:50:01.162Z,32.23
2018-08-06T09:51:01.177Z,32.49
2018-08-06T09:52:01.191Z,32.78
2018-08-06T09:53:01.229Z,32.86
2018-08-06T09:54:01.462Z,32.51
2018-08-06T09:55:01.439Z,32.30
2018-08-06T09:56:01.252Z,32.17
2018-08-06T09:57:01.292Z,31.93
2018-08-06T09:58:01.366Z,31.89
2018-08-06T09:59:01.306Z,31.67
2018-08-06T10:00:01.389Z,31.63
2018-08-06T10:01:01.326Z,31.52
2018-08-06T10:02:01.342Z,31.55
2018-08-06T10:03:01.356Z,31.55
2018-08-06T10:04:01.374Z,31.67
2018-08-06T10:05:01.386Z,31.63
2018-08-06T10:06:01.481Z,31.50
2018-08-06T10:07:01.415Z,31.52
2018-08-06T10:08:01.429Z,31.47
2018-08-06T10:09:01.607Z,31.48
2018-08-06T10:10:01.463Z,31.85
2018-08-06T10:11:01.475Z,31.89
2018-08-06T10:12:01.546Z,31.92
2018-08-06T10:13:01.502Z,32.08
2018-08-06T10:14:01.515Z,32.38
2018-08-06T10:15:01.531Z,32.71
2018-08-06T10:16:01.545Z,33.04
2018-08-06T10:17:01.559Z,33.40
2018-08-06T10:18:01.574Z,33.77
2018-08-06T10:19:01.613Z,34.13
2018-08-06T10:20:01.602Z,34.24
2018-08-06T10:21:01.828Z,34.16
2018-08-06T10:22:01.633Z,34.29
2018-08-06T10:23:01.646Z,34.24
2018-08-06T10:24:01.661Z,34.31
2018-08-06T10:25:01.675Z,34.43
2018-08-06T10:26:01.689Z,34.62
2018-08-06T10:27:01.704Z,33.87
2018-08-06T10:28:01.719Z,33.35
2018-08-06T10:29:01.735Z,32.85
2018-08-06T10:30:01.834Z,32.67
2018-08-06T10:31:01.763Z,32.78
2018-08-06T10:32:01.778Z,33.12
2018-08-06T10:33:01.795Z,33.58
2018-08-06T10:34:01.806Z,33.84
2018-08-06T10:35:01.824Z,33.94
2018-08-06T10:36:01.835Z,34.13
2018-08-06T10:37:01.866Z,34.28
2018-08-06T10:38:01.865Z,34.18
2018-08-06T10:39:01.882Z,34.09
2018-08-06T10:40:02.109Z,33.97
2018-08-06T10:41:01.949Z,34.11
2018-08-06T10:42:01.925Z,34.19
2018-08-06T10:43:01.938Z,33.60
2018-08-06T10:44:01.953Z,33.36
2018-08-06T10:45:01.967Z,33.01
2018-08-06T10:46:01.981Z,33.05
2018-08-06T10:47:02.269Z,32.91
2018-08-06T10:48:02.010Z,32.85
2018-08-06T10:49:02.026Z,32.83
2018-08-06T10:50:02.039Z,33.04
2018-08-06T10:51:02.229Z,33.05
2018-08-06T10:52:02.223Z,33.12
2018-08-06T10:53:02.081Z,33.42
2018-08-06T10:54:02.343Z,33.72
2018-08-06T10:55:02.113Z,33.73
2018-08-06T10:56:02.163Z,33.77
2018-08-06T10:57:02.139Z,33.77
2018-08-06T10:58:02.351Z,33.73
2018-08-06T10:59:02.217Z,33.92
2018-08-06T11:00:02.305Z,34.07
2018-08-06T11:01:02.400Z,34.13
2018-08-06T11:02:02.635Z,34.07
2018-08-06T11:03:02.409Z,34.22
2018-08-06T11:04:02.723Z,34.26
2018-08-06T11:05:02.545Z,34.55
2018-08-06T11:06:02.434Z,34.83
2018-08-06T11:07:03.069Z,34.75
2018-08-06T11:08:02.401Z,34.83
2018-08-06T11:09:02.521Z,34.38
2018-08-06T11:10:02.418Z,34.10
2018-08-06T11:11:02.436Z,33.84
2018-08-06T11:12:02.514Z,33.77
2018-08-06T11:13:02.440Z,33.91
2018-08-06T11:14:02.547Z,34.11
2018-08-06T11:15:02.488Z,34.14
2018-08-06T11:16:02.462Z,34.28
2018-08-06T11:17:02.530Z,34.04
2018-08-06T11:18:02.526Z,33.63
2018-08-06T11:19:02.453Z,33.51
2018-08-06T11:20:02.468Z,33.26
2018-08-06T11:21:02.481Z,33.12
2018-08-06T11:22:02.495Z,33.22
2018-08-06T11:23:02.509Z,33.32
2018-08-06T11:24:02.523Z,33.53
2018-08-06T11:25:02.538Z,33.31
2018-08-06T11:26:02.554Z,33.05
2018-08-06T11:27:02.565Z,32.90
2018-08-06T11:28:02.586Z,32.79
2018-08-06T11:29:02.594Z,32.86
2018-08-06T11:30:02.607Z,32.86
2018-08-06T11:31:02.641Z,33.15
2018-08-06T11:32:02.701Z,33.53
2018-08-06T11:33:02.647Z,33.72
2018-08-06T11:34:02.661Z,34.03
2018-08-06T11:35:02.675Z,34.32
2018-08-06T11:36:02.690Z,34.66
2018-08-06T11:37:02.704Z,34.86
2018-08-06T11:38:02.715Z,34.89
2018-08-06T11:39:02.731Z,35.10
2018-08-06T11:40:02.750Z,35.16
2018-08-06T11:41:02.873Z,35.18
2018-08-06T11:42:02.860Z,34.83
2018-08-06T11:43:02.785Z,34.51
2018-08-06T11:44:02.800Z,34.40
2018-08-06T11:45:02.814Z,34.35
2018-08-06T11:46:02.827Z,34.48
2018-08-06T11:47:02.842Z,34.53
2018-08-06T11:48:02.855Z,34.69
2018-08-06T11:49:02.871Z,34.65
2018-08-06T11:50:02.888Z,34.51
2018-08-06T11:51:02.897Z,34.44
2018-08-06T11:52:02.912Z,34.47
2018-08-06T11:53:03.045Z,34.59
2018-08-06T11:54:02.984Z,34.53
2018-08-06T11:55:02.954Z,34.41
2018-08-06T11:56:02.966Z,34.16
2018-08-06T11:57:02.986Z,33.97
2018-08-06T11:58:03.441Z,33.92
2018-08-06T11:59:03.060Z,33.85
2018-08-06T12:00:03.021Z,33.77
2018-08-06T12:01:03.039Z,33.58
2018-08-06T12:02:03.185Z,33.58
2018-08-06T12:03:03.062Z,33.53
2018-08-06T12:04:03.077Z,33.61
2018-08-06T12:05:03.109Z,33.65
2018-08-06T12:06:03.102Z,33.67
2018-08-06T12:07:03.117Z,33.60
2018-08-06T12:08:03.131Z,33.39
2018-08-06T12:09:03.229Z,33.39
2018-08-06T12:10:03.156Z,33.50
2018-08-06T12:11:03.169Z,33.69
2018-08-06T12:12:03.183Z,33.85
2018-08-06T12:13:03.196Z,34.07
2018-08-06T12:14:03.209Z,34.37
2018-08-06T12:15:03.270Z,34.41
2018-08-06T12:16:03.236Z,34.10
2018-08-06T12:17:03.249Z,34.21
2018-08-06T12:18:03.418Z,34.02
2018-08-06T12:19:03.278Z,34.09
2018-08-06T12:20:03.294Z,34.32
2018-08-06T12:21:03.357Z,34.46
2018-08-06T12:22:03.400Z,34.65
2018-08-06T12:23:03.328Z,34.83
2018-08-06T12:24:03.344Z,34.93
2018-08-06T12:25:03.360Z,35.01
2018-08-06T12:26:03.518Z,35.00
2018-08-06T12:27:03.383Z,34.75
2018-08-06T12:28:03.408Z,34.82
2018-08-06T12:29:03.410Z,34.65
2018-08-06T12:30:03.424Z,34.32
2018-08-06T12:31:03.436Z,34.28
2018-08-06T12:32:03.452Z,34.29
2018-08-06T12:33:03.464Z,34.24
2018-08-06T12:34:03.477Z,34.25
2018-08-06T12:35:03.491Z,34.31
2018-08-06T12:36:03.509Z,34.32
2018-08-06T12:37:03.518Z,34.56
2018-08-06T12:38:03.554Z,34.66
2018-08-06T12:39:03.562Z,34.65
2018-08-06T12:40:03.559Z,34.83
2018-08-06T12:41:03.572Z,34.89
2018-08-06T12:42:03.591Z,35.00
2018-08-06T12:43:03.598Z,35.22
2018-08-06T12:44:03.611Z,35.38
2018-08-06T12:45:03.628Z,35.54
2018-08-06T12:46:03.694Z,35.75
2018-08-06T12:47:03.652Z,35.78
2018-08-06T12:48:03.664Z,35.53
2018-08-06T12:49:03.679Z,35.57
2018-08-06T12:50:03.741Z,35.52
2018-08-06T12:51:03.995Z,35.68
2018-08-06T12:52:03.718Z,35.49
2018-08-06T12:53:03.734Z,35.16